Time;durP1;ratioP1;P1;durP2;ratioP2;P2;SDS_P1;SDS_P2;PMS_P1;PMS_P2;Temp;Humidity;BMP_temperature;BMP_pressure;BME280_temperature;BME280_humidity;BME280_pressure;Samples;Min_cycle;Max_cycle;Signal;HPM_P1;HPM_P2
2022/10/25 00:00:18;;;;;;;23.30;18.30;;;;;20.70;100110.00;;;;2078077;28;20210;-55
2022/10/25 00:01:20;;;;;;;19.70;16.23;;;;;20.70;100113.00;;;;2072181;28;20218;-55
2022/10/25 00:02:21;;;;;;;19.75;17.20;;;;;20.60;100112.00;;;;2068770;28;20242;-55
2022/10/25 00:03:21;;;;;;;21.58;17.30;;;;;20.60;100110.00;;;;2070345;28;20301;-55
2022/10/25 00:04:22;;;;;;;22.67;17.53;;;;;20.70;100111.00;;;;2070232;28;20221;-55
2022/10/25 00:05:22;;;;;;;21.93;17.73;;;;;20.70;100119.00;;;;2068803;28;20341;-55
2022/10/25 00:06:22;;;;;;;19.83;15.60;;;;;20.60;100115.00;;;;2070384;28;20217;-54
2022/10/25 00:07:23;;;;;;;19.63;16.40;;;;;20.40;100115.00;;;;2069681;28;20276;-55
2022/10/25 00:08:23;;;;;;;21.10;17.27;;;;;20.60;100113.00;;;;2070344;28;20211;-55
2022/10/25 00:09:23;;;;;;;18.90;15.37;;;;;20.60;100114.00;;;;2070366;28;20225;-55
2022/10/25 00:10:23;;;;;;;20.50;15.53;;;;;20.60;100111.00;;;;2069915;28;20301;-54
2022/10/25 00:11:25;;;;;;;18.20;15.53;;;;;20.60;100109.00;;;;2070412;28;20206;-54
2022/10/25 00:12:25;;;;;;;17.23;14.65;;;;;20.60;100111.00;;;;2070823;28;20225;-55
2022/10/25 00:13:26;;;;;;;19.47;15.53;;;;;20.60;100107.00;;;;2077516;28;20260;-55
2022/10/25 00:14:26;;;;;;;19.47;16.50;;;;;20.60;100118.00;;;;2078413;28;21276;-55
2022/10/25 00:15:26;;;;;;;19.03;16.03;;;;;20.60;100115.00;;;;2078836;28;20660;-55
2022/10/25 00:16:29;;;;;;;19.47;15.23;;;;;20.60;100116.00;;;;2078891;28;20629;-55
2022/10/25 00:17:29;;;;;;;17.25;15.25;;;;;20.60;100116.00;;;;2078995;28;20233;-55
2022/10/25 00:18:30;;;;;;;18.27;14.97;;;;;20.60;100111.00;;;;2078895;28;20673;-54
2022/10/25 00:19:30;;;;;;;16.40;14.40;;;;;20.60;100121.00;;;;2077821;28;20693;-55
2022/10/25 00:20:30;;;;;;;15.37;13.40;;;;;20.60;100112.00;;;;2076351;28;20800;-55
2022/10/25 00:21:31;;;;;;;17.53;14.43;;;;;20.60;100117.00;;;;2078739;28;20851;-54
2022/10/25 00:22:31;;;;;;;17.60;13.13;;;;;20.60;100119.00;;;;2077236;28;20682;-55
2022/10/25 00:23:31;;;;;;;15.93;13.90;;;;;20.60;100124.00;;;;2078939;28;20263;-55
2022/10/25 00:24:32;;;;;;;16.77;13.40;;;;;20.60;100029.00;;;;2078121;28;20213;-55
2022/10/25 00:25:32;;;;;;;18.00;14.37;;;;;20.60;100122.00;;;;2079053;28;20217;-55
2022/10/25 00:26:33;;;;;;;17.10;13.90;;;;;20.60;100130.00;;;;2078968;28;20213;-55
2022/10/25 00:27:34;;;;;;;18.20;14.23;;;;;20.60;100134.00;;;;2078532;28;20235;-55
2022/10/25 00:28:34;;;;;;;18.17;14.43;;;;;20.60;100124.00;;;;2078097;28;20256;-55
2022/10/25 00:29:34;;;;;;;15.30;13.53;;;;;20.60;100130.00;;;;2078147;28;20321;-54
2022/10/25 00:30:35;;;;;;;17.63;13.47;;;;;20.60;100130.00;;;;2078935;28;20641;-55
2022/10/25 00:31:36;;;;;;;16.20;13.70;;;;;20.60;100121.00;;;;2070912;28;20228;-55
2022/10/25 00:32:36;;;;;;;15.63;12.83;;;;;20.60;100140.00;;;;2069097;28;20214;-55
2022/10/25 00:33:36;;;;;;;17.33;12.77;;;;;20.60;100129.00;;;;2070548;28;20508;-55
2022/10/25 00:34:39;;;;;;;15.73;12.40;;;;;20.60;100132.00;;;;2070145;28;20230;-54
2022/10/25 00:35:39;;;;;;;15.18;12.52;;;;;20.60;100127.00;;;;2070210;28;20221;-55
2022/10/25 00:36:39;;;;;;;14.93;12.70;;;;;20.60;100133.00;;;;2072184;28;20216;-55
2022/10/25 00:37:40;;;;;;;15.30;12.63;;;;;20.60;100118.00;;;;2078590;28;20209;-55
2022/10/25 00:38:40;;;;;;;17.50;12.30;;;;;20.60;100078.00;;;;2075123;28;20767;-58
2022/10/25 00:39:41;;;;;;;16.10;13.03;;;;;20.60;100130.00;;;;2070796;28;20206;-56
2022/10/25 00:40:41;;;;;;;15.47;12.47;;;;;20.60;100128.00;;;;2070771;28;20702;-57
2022/10/25 00:41:41;;;;;;;17.07;11.83;;;;;20.60;100126.00;;;;2070223;28;20305;-56
2022/10/25 00:42:42;;;;;;;13.13;11.40;;;;;20.60;100121.00;;;;2069598;28;20225;-56
2022/10/25 00:43:43;;;;;;;15.00;10.90;;;;;20.60;100123.00;;;;2070212;28;20233;-57
2022/10/25 00:44:46;;;;;;;15.02;12.25;;;;;20.50;100121.00;;;;2070398;28;20220;-55
2022/10/25 00:45:46;;;;;;;13.70;10.75;;;;;20.60;100124.00;;;;2070739;28;20213;-57
2022/10/25 00:46:46;;;;;;;13.47;11.07;;;;;20.50;100123.00;;;;2072043;28;20220;-54
2022/10/25 00:47:50;;;;;;;14.80;11.07;;;;;20.50;100107.00;;;;2077125;28;20249;-56
2022/10/25 00:48:57;;;;;;;15.35;11.52;;;;;20.60;100117.00;;;;2076735;28;20234;-55
2022/10/25 00:50:02;;;;;;;12.07;10.50;;;;;20.50;100124.00;;;;2070299;28;20272;-55
2022/10/25 00:51:02;;;;;;;15.05;10.98;;;;;20.50;100119.00;;;;2077276;28;20336;-55
2022/10/25 00:52:03;;;;;;;14.87;11.83;;;;;20.50;100117.00;;;;2068379;28;20237;-55
2022/10/25 00:53:16;;;;;;;12.73;10.00;;;;;20.50;100119.00;;;;2069255;28;20713;-55
2022/10/25 00:54:19;;;;;;;13.82;10.68;;;;;20.50;100130.00;;;;2060524;28;20454;-55
2022/10/25 00:55:19;;;;;;;12.68;10.35;;;;;20.50;100128.00;;;;2077107;28;20222;-55
2022/10/25 00:56:22;;;;;;;13.97;10.87;;;;;20.50;100120.00;;;;2070571;28;20271;-54
2022/10/25 00:57:44;;;;;;;13.35;10.73;;;;;20.50;100129.00;;;;2069388;28;20206;-55
2022/10/25 00:58:47;;;;;;;11.32;9.25;;;;;20.50;100140.00;;;;2073293;28;20213;-56
2022/10/25 00:59:48;;;;;;;10.68;9.48;;;;;20.50;100147.00;;;;2066614;28;20226;-56
2022/10/25 01:00:48;;;;;;;12.17;10.10;;;;;20.50;100123.00;;;;2070008;28;20706;-54
2022/10/25 01:01:48;;;;;;;12.90;9.90;;;;;20.50;100131.00;;;;2060964;28;20687;-55
2022/10/25 01:02:49;;;;;;;11.57;10.00;;;;;20.50;100123.00;;;;2053500;28;20298;-56
2022/10/25 01:03:50;;;;;;;10.80;9.67;;;;;20.50;100138.00;;;;2045716;28;20641;-56
2022/10/25 01:04:50;;;;;;;12.70;9.53;;;;;20.50;100140.00;;;;2053692;28;20220;-55
2022/10/25 01:05:50;;;;;;;11.53;9.70;;;;;20.50;100134.00;;;;2076763;28;20448;-55
2022/10/25 01:06:51;;;;;;;10.53;9.43;;;;;20.50;100141.00;;;;2069620;28;20273;-55
2022/10/25 01:07:51;;;;;;;10.60;9.03;;;;;20.50;100140.00;;;;2069917;28;20233;-54
2022/10/25 01:08:52;;;;;;;11.53;9.30;;;;;20.50;100139.00;;;;2069789;28;20225;-56
2022/10/25 01:09:52;;;;;;;10.87;8.60;;;;;20.50;100127.00;;;;2069883;28;20213;-55
2022/10/25 01:10:52;;;;;;;10.60;7.90;;;;;20.50;100143.00;;;;2069817;28;20248;-55
2022/10/25 01:11:52;;;;;;;11.90;9.37;;;;;20.50;100144.00;;;;2062692;28;20218;-55
2022/10/25 01:12:53;;;;;;;10.97;8.20;;;;;20.50;100147.00;;;;2078403;28;20271;-55
2022/10/25 01:13:53;;;;;;;12.70;9.07;;;;;20.50;100144.00;;;;2078523;28;20304;-55
2022/10/25 01:14:53;;;;;;;10.07;8.50;;;;;20.50;100146.00;;;;2078385;28;20881;-55
2022/10/25 01:16:07;;;;;;;10.33;8.50;;;;;20.50;100145.00;;;;2078805;28;20216;-55
2022/10/25 01:17:33;;;;;;;9.10;7.93;;;;;20.50;100142.00;;;;2077860;28;20357;-55
2022/10/25 01:18:36;;;;;;;9.10;8.13;;;;;20.50;100148.00;;;;2068969;28;20209;-55
2022/10/25 01:20:14;;;;;;;11.38;9.05;;;;;20.50;100148.00;;;;2069965;28;20325;-55
2022/10/25 01:21:43;;;;;;;9.15;7.78;;;;;20.50;100148.00;;;;2075321;28;20233;-55
2022/10/25 01:22:49;;;;;;;11.80;9.32;;;;;20.50;100144.00;;;;2068681;28;20229;-55
2022/10/25 01:23:58;;;;;;;10.25;8.40;;;;;20.50;100153.00;;;;2062087;28;20219;-56
2022/10/25 01:25:01;;;;;;;10.55;8.35;;;;;20.50;100152.00;;;;2070074;28;20308;-55
2022/10/25 01:26:29;;;;;;;10.25;8.25;;;;;20.50;100151.00;;;;2070155;28;20218;-55
2022/10/25 01:27:44;;;;;;;11.50;8.48;;;;;20.50;100149.00;;;;2074985;28;20213;-55
2022/10/25 01:29:21;;;;;;;9.18;7.07;;;;;20.50;100144.00;;;;2077686;28;20217;-55
2022/10/25 01:30:50;;;;;;;8.55;7.35;;;;;20.50;100158.00;;;;2077185;28;20213;-54
2022/10/25 01:32:00;;;;;;;8.95;7.28;;;;;20.50;100152.00;;;;2072641;28;20710;-55
2022/10/25 01:33:04;;;;;;;10.32;7.68;;;;;20.50;100164.00;;;;2077206;28;20228;-56
2022/10/25 01:34:12;;;;;;;16.67;9.38;;;;;20.50;100153.00;;;;2077058;28;20229;-55
2022/10/25 01:35:28;;;;;;;9.30;7.53;;;;;20.50;100154.00;;;;2071920;28;20768;-55
2022/10/25 01:36:41;;;;;;;11.05;7.45;;;;;20.50;100170.00;;;;2073898;28;20709;-55
2022/10/25 01:37:59;;;;;;;10.43;7.68;;;;;20.50;100147.00;;;;2070619;28;20214;-55
2022/10/25 01:39:08;;;;;;;11.68;6.80;;;;;20.60;100153.00;;;;2077486;28;20225;-55
2022/10/25 01:40:15;;;;;;;11.13;7.15;;;;;20.60;100170.00;;;;2077673;28;20213;-55
2022/10/25 01:41:24;;;;;;;8.73;6.95;;;;;20.60;100157.00;;;;2077841;28;20220;-55
2022/10/25 01:42:34;;;;;;;11.25;7.55;;;;;20.60;100158.00;;;;2076469;28;20296;-55
2022/10/25 01:43:44;;;;;;;10.07;6.88;;;;;20.60;100143.00;;;;2070049;28;20304;-55
2022/10/25 01:45:03;;;;;;;8.15;6.38;;;;;20.60;100167.00;;;;2069365;28;20224;-55
2022/10/25 01:46:10;;;;;;;7.68;6.00;;;;;20.60;100158.00;;;;2070223;28;20213;-55
2022/10/25 01:47:25;;;;;;;9.77;6.82;;;;;20.60;100161.00;;;;2077749;28;20217;-55
2022/10/25 01:48:27;;;;;;;8.73;6.10;;;;;20.60;100162.00;;;;2075535;28;20262;-55
2022/10/25 01:49:49;;;;;;;9.73;6.88;;;;;20.60;100174.00;;;;2054992;28;20695;-55
2022/10/25 01:50:49;;;;;;;7.95;6.32;;;;;20.60;100161.00;;;;2067430;28;20217;-55
2022/10/25 01:51:50;;;;;;;8.93;6.50;;;;;20.60;100163.00;;;;2076749;28;20237;-55
2022/10/25 01:52:50;;;;;;;7.63;6.20;;;;;20.60;100164.00;;;;2078465;28;20244;-55
2022/10/25 01:53:50;;;;;;;8.23;6.40;;;;;20.60;100156.00;;;;2078242;28;20279;-55
2022/10/25 01:54:51;;;;;;;8.17;6.20;;;;;20.60;100162.00;;;;2078384;28;20213;-55
2022/10/25 01:55:56;;;;;;;7.27;5.90;;;;;20.60;100168.00;;;;2078089;28;20564;-55
2022/10/25 01:57:21;;;;;;;10.75;6.38;;;;;20.60;100163.00;;;;2068915;28;20777;-55
2022/10/25 01:58:41;;;;;;;8.65;6.22;;;;;20.60;100159.00;;;;2073238;28;20209;-55
2022/10/25 02:00:00;;;;;;;7.80;6.18;;;;;20.60;100168.00;;;;2067385;28;20580;-55
2022/10/25 02:01:25;;;;;;;8.60;6.22;;;;;20.60;100157.00;;;;2072584;28;20217;-55
2022/10/25 02:02:57;;;;;;;9.45;6.20;;;;;20.60;100178.00;;;;2072942;28;20217;-56
2022/10/25 02:04:25;;;;;;;8.05;5.50;;;;;20.60;100165.00;;;;2066351;28;20210;-55
2022/10/25 02:05:28;;;;;;;7.25;5.35;;;;;20.60;100160.00;;;;2069949;28;20259;-56
2022/10/25 02:06:40;;;;;;;10.05;5.82;;;;;20.60;100170.00;;;;2077855;28;20255;-56
2022/10/25 02:07:42;;;;;;;8.35;5.45;;;;;20.60;100162.00;;;;2076627;28;20249;-54
2022/10/25 02:09:02;;;;;;;8.57;5.22;;;;;20.60;100168.00;;;;2069433;28;20309;-54
2022/10/25 02:10:34;;;;;;;6.07;4.75;;;;;20.50;100167.00;;;;2076648;28;20262;-54
2022/10/25 02:11:35;;;;;;;6.65;3.50;;;;;20.50;100173.00;;;;2071413;28;20267;-54
2022/10/25 02:12:41;;;;;;;8.30;4.13;;;;;20.50;100166.00;;;;2078441;28;20246;-55
2022/10/25 02:14:03;;;;;;;7.85;4.20;;;;;20.50;100164.00;;;;2078855;28;20294;-55
2022/10/25 02:15:38;;;;;;;6.43;3.70;;;;;20.50;100170.00;;;;2079091;28;20737;-55
2022/10/25 02:16:41;;;;;;;6.82;3.70;;;;;20.50;100171.00;;;;2070331;28;20374;-55
2022/10/25 02:17:48;;;;;;;4.90;3.45;;;;;20.40;100170.00;;;;2069130;28;20206;-56
2022/10/25 02:18:49;;;;;;;5.28;3.40;;;;;20.40;100107.00;;;;2056794;28;20224;-55
2022/10/25 02:19:51;;;;;;;5.80;3.70;;;;;20.40;100167.00;;;;2053420;28;20226;-56
2022/10/25 02:20:52;;;;;;;6.25;3.60;;;;;20.40;100165.00;;;;2047367;28;20300;-56
2022/10/25 02:21:52;;;;;;;7.23;3.60;;;;;20.40;100163.00;;;;2046080;28;20756;-54
2022/10/25 02:22:52;;;;;;;4.63;3.30;;;;;20.40;100146.00;;;;2062438;28;20214;-55
2022/10/25 02:23:53;;;;;;;6.27;4.03;;;;;20.40;100165.00;;;;2062828;28;20322;-54
2022/10/25 02:24:53;;;;;;;4.13;3.37;;;;;20.40;100170.00;;;;2062938;28;21063;-54
2022/10/25 02:25:54;;;;;;;5.17;3.27;;;;;20.10;100168.00;;;;2062963;28;20213;-54
2022/10/25 02:26:54;;;;;;;5.40;3.77;;;;;20.40;100164.00;;;;2054730;28;20346;-55
2022/10/25 02:27:54;;;;;;;5.93;3.53;;;;;20.40;100172.00;;;;2062993;28;20238;-55
2022/10/25 02:28:55;;;;;;;7.63;3.63;;;;;20.40;100166.00;;;;2062524;28;20223;-55
2022/10/25 02:29:55;;;;;;;5.80;3.60;;;;;20.40;100171.00;;;;2054964;28;20227;-54
2022/10/25 02:30:56;;;;;;;7.40;4.00;;;;;20.40;100169.00;;;;2062941;28;20269;-54
2022/10/25 02:31:56;;;;;;;3.97;2.90;;;;;20.40;100151.00;;;;2061776;28;20232;-54
2022/10/25 02:32:56;;;;;;;4.90;3.50;;;;;20.30;100160.00;;;;2070706;28;20218;-55
2022/10/25 02:33:57;;;;;;;6.20;3.73;;;;;20.40;100172.00;;;;2078015;28;20224;-55
2022/10/25 02:34:57;;;;;;;4.97;3.20;;;;;20.30;100165.00;;;;2070970;28;20299;-55
2022/10/25 02:36:22;;;;;;;6.53;3.30;;;;;20.00;100172.00;;;;2070803;28;20325;-56
2022/10/25 02:37:23;;;;;;;6.63;3.90;;;;;20.30;100169.00;;;;2079912;28;20221;-55
2022/10/25 02:38:23;;;;;;;4.93;3.10;;;;;20.30;100183.00;;;;2079594;28;20213;-54
2022/10/25 02:39:24;;;;;;;6.90;3.93;;;;;20.30;100175.00;;;;2079814;28;20209;-55
2022/10/25 02:40:24;;;;;;;5.28;3.03;;;;;20.30;100175.00;;;;2078315;28;20288;-54
2022/10/25 02:41:25;;;;;;;5.23;3.00;;;;;20.30;100179.00;;;;2070954;28;20689;-54
2022/10/25 02:42:25;;;;;;;5.03;3.10;;;;;20.30;100176.00;;;;2072917;28;20632;-56
2022/10/25 02:43:25;;;;;;;5.60;3.30;;;;;20.30;100174.00;;;;2068746;28;20222;-56
2022/10/25 02:44:26;;;;;;;8.17;3.00;;;;;20.30;100176.00;;;;2070406;28;20293;-54
2022/10/25 02:45:26;;;;;;;4.83;2.80;;;;;20.30;100174.00;;;;2079351;28;20217;-54
2022/10/25 02:46:26;;;;;;;5.80;3.10;;;;;20.30;100170.00;;;;2079727;28;20226;-55
2022/10/25 02:47:27;;;;;;;5.67;3.07;;;;;20.30;100172.00;;;;2079705;28;20259;-54
2022/10/25 02:48:27;;;;;;;4.83;2.83;;;;;20.30;100166.00;;;;2079811;28;20278;-55
2022/10/25 02:49:27;;;;;;;4.17;2.73;;;;;20.30;100177.00;;;;2079308;28;20222;-56
2022/10/25 02:50:28;;;;;;;3.90;2.80;;;;;20.30;99801.00;;;;2078288;28;20275;-56
2022/10/25 02:51:28;;;;;;;5.47;2.70;;;;;20.30;100179.00;;;;2078526;28;20218;-54
2022/10/25 02:52:28;;;;;;;4.27;2.70;;;;;20.30;100189.00;;;;2078770;28;20209;-54
2022/10/25 02:53:29;;;;;;;3.53;2.33;;;;;20.30;100178.00;;;;2079391;28;20206;-55
2022/10/25 02:54:29;;;;;;;3.60;2.50;;;;;20.30;100180.00;;;;2079484;28;20229;-54
2022/10/25 02:55:29;;;;;;;6.00;2.93;;;;;20.30;100175.00;;;;2079624;28;20205;-55
2022/10/25 02:56:29;;;;;;;4.97;2.93;;;;;20.30;100185.00;;;;2079251;28;20225;-55
2022/10/25 02:57:36;;;;;;;4.73;2.83;;;;;20.30;100173.00;;;;2079719;28;20300;-55
2022/10/25 02:58:38;;;;;;;4.50;2.30;;;;;20.30;100160.00;;;;2073316;28;21531;-54
2022/10/25 02:59:39;;;;;;;4.95;2.50;;;;;20.30;100188.00;;;;2070537;28;20284;-55
2022/10/25 03:00:39;;;;;;;4.90;2.50;;;;;20.30;100186.00;;;;2070577;28;20222;-54
2022/10/25 03:01:39;;;;;;;5.27;2.50;;;;;20.30;100189.00;;;;2062545;28;20214;-53
2022/10/25 03:02:40;;;;;;;4.93;2.80;;;;;20.30;100194.00;;;;2061732;28;20210;-54
2022/10/25 03:03:40;;;;;;;3.30;2.57;;;;;20.30;100188.00;;;;2078488;28;20220;-55
2022/10/25 03:04:40;;;;;;;5.20;2.50;;;;;20.30;100184.00;;;;2079727;28;20217;-56
2022/10/25 03:05:43;;;;;;;4.87;2.93;;;;;20.20;100190.00;;;;2079042;28;20604;-54
2022/10/25 03:06:43;;;;;;;2.90;2.30;;;;;20.30;100183.00;;;;2079521;28;20271;-54
2022/10/25 03:07:44;;;;;;;4.70;2.40;;;;;20.30;100184.00;;;;2079628;28;20253;-54
2022/10/25 03:08:45;;;;;;;4.97;2.67;;;;;19.80;100185.00;;;;2079459;28;20212;-54
2022/10/25 03:09:45;;;;;;;4.33;2.73;;;;;20.30;100180.00;;;;2078029;28;20228;-56
2022/10/25 03:10:46;;;;;;;3.90;2.77;;;;;20.30;100193.00;;;;2071343;28;20539;-54
2022/10/25 03:11:46;;;;;;;3.43;2.00;;;;;20.20;100191.00;;;;2071291;28;20217;-55
2022/10/25 03:12:46;;;;;;;4.20;2.30;;;;;20.30;100186.00;;;;2078853;28;20229;-55
2022/10/25 03:13:47;;;;;;;4.50;2.70;;;;;20.20;100186.00;;;;2078842;28;20310;-55
2022/10/25 03:14:47;;;;;;;5.40;2.30;;;;;20.20;100192.00;;;;2079378;28;20210;-54
2022/10/25 03:15:47;;;;;;;4.20;2.20;;;;;20.20;100187.00;;;;2079355;28;20228;-54
2022/10/25 03:16:48;;;;;;;3.03;2.00;;;;;20.20;100184.00;;;;2079102;28;20219;-54
2022/10/25 03:17:48;;;;;;;2.93;1.93;;;;;20.20;100193.00;;;;2079668;28;20205;-54
2022/10/25 03:18:48;;;;;;;3.23;1.70;;;;;20.20;100193.00;;;;2079450;28;20213;-54
2022/10/25 03:19:49;;;;;;;3.60;1.90;;;;;20.20;100197.00;;;;2076568;28;20213;-54
2022/10/25 03:20:49;;;;;;;4.73;2.60;;;;;20.30;100195.00;;;;2075134;28;20267;-55
2022/10/25 03:21:49;;;;;;;3.07;2.00;;;;;20.20;100193.00;;;;2077583;28;20209;-54
2022/10/25 03:22:50;;;;;;;3.33;2.20;;;;;20.20;100197.00;;;;2079590;28;20256;-54
2022/10/25 03:23:50;;;;;;;4.80;2.00;;;;;20.20;100199.00;;;;2079323;28;20210;-54
2022/10/25 03:24:50;;;;;;;4.60;2.30;;;;;20.20;100207.00;;;;2079644;28;20213;-54
2022/10/25 03:25:54;;;;;;;4.03;2.40;;;;;20.20;100198.00;;;;2079628;28;20303;-53
2022/10/25 03:26:55;;;;;;;4.95;2.20;;;;;20.20;100208.00;;;;2078878;28;20441;-53
2022/10/25 03:27:55;;;;;;;4.30;2.30;;;;;20.20;100208.00;;;;2078831;28;20221;-53
2022/10/25 03:28:55;;;;;;;5.50;2.40;;;;;20.20;100120.00;;;;2078806;28;20325;-55
2022/10/25 03:29:56;;;;;;;3.13;1.70;;;;;20.20;100172.00;;;;2079302;28;20314;-55
2022/10/25 03:30:56;;;;;;;3.03;2.20;;;;;20.20;100202.00;;;;2079356;28;20221;-55
2022/10/25 03:31:57;;;;;;;5.27;2.03;;;;;20.20;100203.00;;;;2077587;28;20698;-55
2022/10/25 03:32:57;;;;;;;3.00;1.87;;;;;20.30;100214.00;;;;2079336;28;20283;-54
2022/10/25 03:33:57;;;;;;;3.80;1.70;;;;;20.30;100204.00;;;;2078978;28;20221;-55
2022/10/25 03:34:58;;;;;;;3.23;1.70;;;;;20.20;100205.00;;;;2079549;28;20228;-56
2022/10/25 03:35:58;;;;;;;5.03;1.77;;;;;20.20;100205.00;;;;2079338;28;20221;-56
2022/10/25 03:36:58;;;;;;;3.40;1.90;;;;;20.20;100198.00;;;;2078709;28;20256;-54
2022/10/25 03:37:59;;;;;;;2.67;1.67;;;;;20.20;100209.00;;;;2078060;28;20209;-54
2022/10/25 03:38:59;;;;;;;3.33;1.60;;;;;20.20;100216.00;;;;2079254;28;20217;-55
2022/10/25 03:39:59;;;;;;;2.27;1.33;;;;;20.20;100209.00;;;;2079581;28;20229;-54
2022/10/25 03:41:00;;;;;;;2.50;1.70;;;;;20.20;100207.00;;;;2079461;28;20213;-54
2022/10/25 03:42:00;;;;;;;4.00;1.70;;;;;20.20;100212.00;;;;2078329;28;20213;-55
2022/10/25 03:43:00;;;;;;;4.23;2.00;;;;;20.20;100212.00;;;;2079274;28;20217;-56
2022/10/25 03:44:01;;;;;;;3.67;1.57;;;;;20.20;100213.00;;;;2073268;28;20291;-55
2022/10/25 03:45:01;;;;;;;3.33;1.83;;;;;20.20;100209.00;;;;2070603;28;20280;-54
2022/10/25 03:46:01;;;;;;;3.00;1.57;;;;;20.20;100212.00;;;;2071318;28;20277;-54
2022/10/25 03:47:01;;;;;;;2.33;1.47;;;;;20.20;100218.00;;;;2071278;28;20222;-53
2022/10/25 03:48:02;;;;;;;3.73;1.87;;;;;20.20;100211.00;;;;2071307;28;20229;-54
2022/10/25 03:49:02;;;;;;;2.83;1.60;;;;;20.20;100216.00;;;;2070883;28;20230;-54
2022/10/25 03:50:03;;;;;;;4.13;1.60;;;;;20.20;100211.00;;;;2071096;28;20222;-54
2022/10/25 03:51:03;;;;;;;2.73;1.77;;;;;20.20;100212.00;;;;2071110;28;20218;-54
2022/10/25 03:52:06;;;;;;;4.57;1.67;;;;;20.20;100214.00;;;;2069905;28;20222;-53
2022/10/25 03:53:08;;;;;;;3.38;1.40;;;;;20.20;100213.00;;;;2070986;28;21069;-54
2022/10/25 03:54:08;;;;;;;4.10;1.70;;;;;20.20;100210.00;;;;2074749;28;20747;-54
2022/10/25 03:55:09;;;;;;;3.43;1.60;;;;;20.20;100223.00;;;;2077364;28;20243;-54
2022/10/25 03:56:09;;;;;;;3.57;1.37;;;;;20.20;100215.00;;;;2070502;28;20224;-55
2022/10/25 03:57:09;;;;;;;2.47;1.80;;;;;20.20;100215.00;;;;2071068;28;20585;-55
2022/10/25 03:58:10;;;;;;;3.40;1.50;;;;;20.20;100216.00;;;;2071158;28;20226;-55
2022/10/25 03:59:10;;;;;;;2.30;1.43;;;;;20.20;100216.00;;;;2070772;28;20294;-55
2022/10/25 04:00:11;;;;;;;5.50;1.73;;;;;20.20;100218.00;;;;2071005;28;20218;-54
2022/10/25 04:01:11;;;;;;;4.23;1.70;;;;;20.20;100222.00;;;;2070845;28;20218;-56
2022/10/25 04:02:12;;;;;;;3.00;1.50;;;;;20.20;100221.00;;;;2070006;28;20457;-55
2022/10/25 04:03:12;;;;;;;1.80;1.20;;;;;20.20;100230.00;;;;2061973;28;20226;-54
2022/10/25 04:04:12;;;;;;;5.10;1.87;;;;;20.20;100217.00;;;;2062032;28;20215;-54
2022/10/25 04:05:13;;;;;;;3.70;1.63;;;;;20.30;100215.00;;;;2070966;28;20206;-55
2022/10/25 04:06:13;;;;;;;3.07;1.37;;;;;20.30;100220.00;;;;2070422;28;20214;-54
2022/10/25 04:07:13;;;;;;;4.93;2.10;;;;;20.30;100228.00;;;;2071028;28;20218;-54
2022/10/25 04:08:14;;;;;;;3.40;1.90;;;;;20.40;100220.00;;;;2071018;28;20206;-54
2022/10/25 04:09:14;;;;;;;3.13;1.83;;;;;20.30;100219.00;;;;2071023;28;20222;-54
2022/10/25 04:10:14;;;;;;;4.00;1.60;;;;;20.30;100222.00;;;;2071393;28;20307;-54
2022/10/25 04:11:15;;;;;;;2.60;1.50;;;;;20.40;100229.00;;;;2078537;28;20360;-53
2022/10/25 04:12:15;;;;;;;4.03;1.80;;;;;20.40;100224.00;;;;2077377;28;20222;-53
2022/10/25 04:13:15;;;;;;;5.40;2.43;;;;;20.40;100231.00;;;;2072687;28;20217;-54
2022/10/25 04:14:16;;;;;;;3.80;1.53;;;;;20.40;100229.00;;;;2069876;28;20210;-54
2022/10/25 04:15:16;;;;;;;3.87;1.30;;;;;20.40;100239.00;;;;2070229;28;20242;-53
2022/10/25 04:16:17;;;;;;;2.50;1.50;;;;;20.40;100232.00;;;;2069883;28;20210;-54
2022/10/25 04:17:17;;;;;;;3.37;1.63;;;;;20.40;100223.00;;;;2069774;28;20214;-54
2022/10/25 04:18:20;;;;;;;7.87;1.80;;;;;20.40;100228.00;;;;2069904;28;20233;-53
2022/10/25 04:19:20;;;;;;;3.38;1.52;;;;;20.40;100232.00;;;;2071196;28;20206;-54
2022/10/25 04:20:21;;;;;;;5.23;1.67;;;;;20.50;100231.00;;;;2070398;28;20207;-54
2022/10/25 04:21:21;;;;;;;4.57;1.80;;;;;20.40;100231.00;;;;2070407;28;20229;-54
2022/10/25 04:22:22;;;;;;;5.93;1.90;;;;;20.40;100236.00;;;;2068710;28;20729;-55
2022/10/25 04:23:22;;;;;;;5.37;1.77;;;;;20.40;100238.00;;;;2069418;28;20729;-54
2022/10/25 04:24:22;;;;;;;3.93;1.50;;;;;20.40;100243.00;;;;2070461;28;20702;-54
2022/10/25 04:25:24;;;;;;;3.87;1.33;;;;;20.40;100243.00;;;;2069894;28;20214;-55
2022/10/25 04:26:24;;;;;;;4.40;1.70;;;;;20.40;100246.00;;;;2069689;28;20430;-54
2022/10/25 04:27:24;;;;;;;3.20;1.53;;;;;20.30;100241.00;;;;2070094;28;21285;-54
2022/10/25 04:28:25;;;;;;;4.00;1.63;;;;;20.30;100250.00;;;;2078107;28;20651;-54
2022/10/25 04:29:25;;;;;;;3.60;1.23;;;;;20.30;100250.00;;;;2079048;28;20633;-54
2022/10/25 04:30:25;;;;;;;4.93;1.43;;;;;20.30;100250.00;;;;2078942;28;20656;-54
2022/10/25 04:31:26;;;;;;;2.27;1.40;;;;;20.30;100245.00;;;;2075826;28;20220;-55
2022/10/25 04:32:26;;;;;;;4.47;1.23;;;;;20.30;100249.00;;;;2069886;28;20276;-54
2022/10/25 04:33:26;;;;;;;1.90;1.13;;;;;20.30;100254.00;;;;2069627;28;20302;-54
2022/10/25 04:34:27;;;;;;;4.07;1.50;;;;;20.30;100251.00;;;;2070019;28;20221;-54
2022/10/25 04:35:27;;;;;;;2.90;1.30;;;;;20.40;100252.00;;;;2070566;28;20221;-55
2022/10/25 04:36:28;;;;;;;1.50;1.00;;;;;20.30;100254.00;;;;2070849;28;20282;-55
2022/10/25 04:37:28;;;;;;;2.73;1.50;;;;;20.30;100256.00;;;;2070903;28;20229;-55
2022/10/25 04:38:28;;;;;;;4.20;1.30;;;;;20.30;100262.00;;;;2067907;28;20488;-55
2022/10/25 04:39:29;;;;;;;5.40;1.40;;;;;20.30;100251.00;;;;2072135;28;20268;-55
2022/10/25 04:40:29;;;;;;;4.13;1.43;;;;;20.30;100251.00;;;;2070617;28;20210;-55
2022/10/25 04:41:29;;;;;;;3.47;1.20;;;;;20.30;100248.00;;;;2069652;28;20376;-55
2022/10/25 04:42:32;;;;;;;2.20;1.30;;;;;20.30;100267.00;;;;2069212;28;20225;-55
2022/10/25 04:43:32;;;;;;;3.20;1.23;;;;;20.30;100255.00;;;;2069813;28;20226;-55
2022/10/25 04:44:33;;;;;;;2.23;1.50;;;;;20.30;100257.00;;;;2069440;28;20238;-54
2022/10/25 04:45:33;;;;;;;2.70;1.60;;;;;20.30;100259.00;;;;2069403;28;20641;-55
2022/10/25 04:46:33;;;;;;;2.60;1.83;;;;;20.30;100254.00;;;;2065521;28;20214;-54
2022/10/25 04:47:34;;;;;;;5.00;2.03;;;;;20.30;100256.00;;;;2078181;28;20240;-55
2022/10/25 04:48:40;;;;;;;4.20;2.70;;;;;20.30;100259.00;;;;2072132;28;20289;-54
2022/10/25 04:49:40;;;;;;;6.35;4.53;;;;;20.30;100252.00;;;;2074423;28;20300;-54
2022/10/25 04:50:41;;;;;;;6.13;4.87;;;;;20.30;100263.00;;;;2069840;28;20253;-54
2022/10/25 04:51:41;;;;;;;9.17;6.83;;;;;20.10;100262.00;;;;2070179;28;20210;-54
2022/10/25 04:52:41;;;;;;;13.47;8.53;;;;;20.30;100259.00;;;;2073692;28;20218;-54
2022/10/25 04:53:42;;;;;;;18.07;11.13;;;;;20.30;100272.00;;;;2069884;28;20736;-54
2022/10/25 04:54:42;;;;;;;15.90;11.10;;;;;20.30;100260.00;;;;2070274;28;20666;-54
2022/10/25 04:55:42;;;;;;;15.13;11.93;;;;;20.30;100260.00;;;;2076394;28;20214;-54
2022/10/25 04:56:43;;;;;;;20.83;14.67;;;;;20.30;100263.00;;;;2077866;28;20210;-54
2022/10/25 04:57:43;;;;;;;23.80;15.20;;;;;20.30;100273.00;;;;2077708;28;20585;-54
2022/10/25 04:58:43;;;;;;;28.77;19.50;;;;;20.30;100268.00;;;;2078651;28;20639;-54
2022/10/25 04:59:44;;;;;;;27.37;19.23;;;;;20.30;100271.00;;;;2078185;28;20220;-54
2022/10/25 05:00:46;;;;;;;29.07;19.73;;;;;20.30;100280.00;;;;2078329;28;20210;-55
2022/10/25 05:01:46;;;;;;;35.05;22.80;;;;;20.30;100264.00;;;;2077260;28;21024;-54
2022/10/25 05:02:46;;;;;;;32.50;21.60;;;;;20.30;100263.00;;;;2078070;28;20241;-54
2022/10/25 05:03:47;;;;;;;32.03;22.30;;;;;20.30;100272.00;;;;2078337;28;20222;-55
2022/10/25 05:04:48;;;;;;;38.13;26.10;;;;;20.30;100256.00;;;;2078313;28;20735;-54
2022/10/25 05:05:48;;;;;;;38.67;25.60;;;;;20.30;100265.00;;;;2077832;28;20294;-54
2022/10/25 05:06:48;;;;;;;38.53;26.17;;;;;20.30;100272.00;;;;2077396;28;20217;-54
2022/10/25 05:07:49;;;;;;;35.20;25.80;;;;;20.30;100115.00;;;;2078236;28;20275;-54
2022/10/25 05:08:49;;;;;;;40.50;27.43;;;;;20.30;100265.00;;;;2071259;28;20312;-54
2022/10/25 05:09:49;;;;;;;40.73;27.17;;;;;20.30;100268.00;;;;2070450;28;20214;-54